createdAt,value
2023-05-19T00:00:48.979Z,61.33
2023-05-19T00:01:47.237Z,61.44
2023-05-19T00:02:47.340Z,59.52
2023-05-19T00:03:47.219Z,61.68
2023-05-19T00:04:47.220Z,58.72
2023-05-19T00:05:47.221Z,60.53
2023-05-19T00:06:47.205Z,59.82
2023-05-19T00:07:47.197Z,59.50
2023-05-19T00:08:47.192Z,61.49
2023-05-19T00:09:47.208Z,59.57
2023-05-19T00:10:47.186Z,59.85
2023-05-19T00:11:47.166Z,61.24
2023-05-19T00:12:48.096Z,61.60
2023-05-19T00:13:47.149Z,60.87
2023-05-19T00:14:47.139Z,61.49
2023-05-19T00:15:47.144Z,61.34
2023-05-19T00:16:47.144Z,57.76
2023-05-19T00:17:47.134Z,59.50
2023-05-19T00:18:47.124Z,60.80
2023-05-19T00:19:47.114Z,62.44
2023-05-19T00:20:47.110Z,58.73
2023-05-19T00:21:47.141Z,60.83
2023-05-19T00:22:47.100Z,61.10
2023-05-19T00:23:47.119Z,58.06
2023-05-19T00:24:47.105Z,57.26
2023-05-19T00:25:47.120Z,55.33
2023-05-19T00:26:47.091Z,59.96
2023-05-19T00:27:47.083Z,59.94
2023-05-19T00:28:47.072Z,55.90
2023-05-19T00:29:47.066Z,59.94
2023-05-19T00:30:47.085Z,63.85
2023-05-19T00:31:47.068Z,58.49
2023-05-19T00:32:47.147Z,61.84
2023-05-19T00:33:47.069Z,57.01
2023-05-19T00:34:47.075Z,61.09
2023-05-19T00:35:47.066Z,62.93
2023-05-19T00:36:47.076Z,60.18
2023-05-19T00:37:47.069Z,57.24
2023-05-19T00:38:47.051Z,59.22
2023-05-19T00:39:47.044Z,59.01
2023-05-19T00:40:47.048Z,58.25
2023-05-19T00:41:47.086Z,57.57
2023-05-19T00:42:47.039Z,60.41
2023-05-19T00:43:47.062Z,58.14
2023-05-19T00:44:47.030Z,58.78
2023-05-19T00:45:47.044Z,57.13
2023-05-19T00:46:47.122Z,58.85
2023-05-19T00:47:47.068Z,60.71
2023-05-19T00:48:47.044Z,58.74
2023-05-19T00:49:47.095Z,59.43
2023-05-19T00:50:47.047Z,55.23
2023-05-19T00:51:47.018Z,60.33
2023-05-19T00:52:47.010Z,58.56
2023-05-19T00:53:47.007Z,60.69
2023-05-19T00:54:47.000Z,61.11
2023-05-19T00:55:47.008Z,60.10
2023-05-19T00:56:47.006Z,61.01
2023-05-19T00:57:46.989Z,60.28
2023-05-19T00:58:46.988Z,62.48
2023-05-19T00:59:46.994Z,60.73
2023-05-19T01:00:46.980Z,63.70
2023-05-19T01:01:46.968Z,60.89
2023-05-19T01:02:47.023Z,63.46
2023-05-19T01:03:47.201Z,64.35
2023-05-19T01:04:46.959Z,60.93
2023-05-19T01:05:46.947Z,60.25
2023-05-19T01:06:46.964Z,60.67
2023-05-19T01:07:46.932Z,64.14
2023-05-19T01:08:46.934Z,62.55
2023-05-19T01:09:46.928Z,61.89
2023-05-19T01:10:46.946Z,59.62
2023-05-19T01:11:46.982Z,59.90
2023-05-19T01:12:46.989Z,60.09
2023-05-19T01:13:47.026Z,61.56
2023-05-19T01:14:47.030Z,60.47
2023-05-19T01:15:47.062Z,63.45
2023-05-19T01:16:47.143Z,61.91
2023-05-19T01:17:47.093Z,60.56
2023-05-19T01:18:47.146Z,59.38
2023-05-19T01:19:47.128Z,57.65
2023-05-19T01:20:47.172Z,60.08
2023-05-19T01:21:47.184Z,59.19
2023-05-19T01:22:47.206Z,60.70
2023-05-19T01:23:47.209Z,61.12
2023-05-19T01:24:47.236Z,59.33
2023-05-19T01:25:47.262Z,58.51
2023-05-19T01:26:47.291Z,63.15
2023-05-19T01:27:47.314Z,62.63
2023-05-19T01:28:47.321Z,60.01
2023-05-19T01:29:47.376Z,61.24
2023-05-19T01:30:47.383Z,63.04
2023-05-19T01:31:47.494Z,64.33
2023-05-19T01:32:47.451Z,61.95
2023-05-19T01:33:47.455Z,58.09
2023-05-19T01:34:47.473Z,62.63
2023-05-19T01:35:47.497Z,62.95
2023-05-19T01:36:47.523Z,65.83
2023-05-19T01:37:47.553Z,64.21
2023-05-19T01:38:47.610Z,62.36
2023-05-19T01:39:47.602Z,63.09
2023-05-19T01:40:47.641Z,63.08
2023-05-19T01:41:47.650Z,61.18
2023-05-19T01:42:47.670Z,63.04
2023-05-19T01:43:47.692Z,64.01
2023-05-19T01:44:47.735Z,65.68
2023-05-19T01:45:47.798Z,65.56
2023-05-19T01:46:47.808Z,64.23
2023-05-19T01:47:47.856Z,61.07
2023-05-19T01:48:47.818Z,62.13
2023-05-19T01:49:47.847Z,64.53
2023-05-19T01:50:47.866Z,58.91
2023-05-19T01:51:47.899Z,64.26
2023-05-19T01:52:47.940Z,65.77
2023-05-19T01:53:47.958Z,63.76
2023-05-19T01:54:47.995Z,64.20
2023-05-19T01:55:48.042Z,63.47
2023-05-19T01:56:48.055Z,62.46
2023-05-19T01:57:48.052Z,62.53
2023-05-19T01:58:48.096Z,62.76
2023-05-19T01:59:48.109Z,64.18
2023-05-19T02:00:48.145Z,60.62
2023-05-19T02:01:48.189Z,63.57
2023-05-19T02:02:48.238Z,61.13
2023-05-19T02:03:48.314Z,61.58
2023-05-19T02:04:48.277Z,62.87
2023-05-19T02:05:48.306Z,61.17
2023-05-19T02:06:48.305Z,62.61
2023-05-19T02:07:48.348Z,60.78
2023-05-19T02:08:48.364Z,65.05
2023-05-19T02:09:48.403Z,62.81
2023-05-19T02:10:48.437Z,60.92
2023-05-19T02:11:48.435Z,64.94
2023-05-19T02:12:48.463Z,57.76
2023-05-19T02:13:48.572Z,60.11
2023-05-19T02:14:48.523Z,61.08
2023-05-19T02:15:48.595Z,59.61
2023-05-19T02:16:48.573Z,62.24
2023-05-19T02:17:48.669Z,62.52
2023-05-19T02:18:48.633Z,63.35
2023-05-19T02:19:48.828Z,63.94
2023-05-19T02:20:48.669Z,63.71
2023-05-19T02:21:48.718Z,62.15
2023-05-19T02:22:48.726Z,63.07
2023-05-19T02:23:48.788Z,64.75
2023-05-19T02:24:48.792Z,65.07
2023-05-19T02:25:48.828Z,63.09
2023-05-19T02:26:48.834Z,61.01
2023-05-19T02:27:48.863Z,61.37
2023-05-19T02:28:48.895Z,61.07
2023-05-19T02:29:48.935Z,61.81
2023-05-19T02:30:48.987Z,62.89
2023-05-19T02:31:49.012Z,62.06
2023-05-19T02:32:49.098Z,63.33
2023-05-19T02:33:49.041Z,60.97
2023-05-19T02:34:49.085Z,62.55
2023-05-19T02:35:49.110Z,61.79
2023-05-19T02:36:49.147Z,64.45
2023-05-19T02:37:49.165Z,62.25
2023-05-19T02:38:49.173Z,60.56
2023-05-19T02:39:49.217Z,62.38
2023-05-19T02:40:49.233Z,61.34
2023-05-19T02:41:49.277Z,64.52
2023-05-19T02:42:49.282Z,62.67
2023-05-19T02:43:49.337Z,64.13
2023-05-19T02:44:49.341Z,61.57
2023-05-19T02:45:49.371Z,63.39
2023-05-19T02:46:49.551Z,63.67
2023-05-19T02:47:49.460Z,63.16
2023-05-19T02:48:49.468Z,63.85
2023-05-19T02:49:49.512Z,59.55
2023-05-19T02:50:49.541Z,61.56
2023-05-19T02:51:49.571Z,64.25
2023-05-19T02:52:49.680Z,63.70
2023-05-19T02:53:49.618Z,65.59
2023-05-19T02:54:49.733Z,65.13
2023-05-19T02:55:49.686Z,62.87
2023-05-19T02:56:49.708Z,63.01
2023-05-19T02:57:49.744Z,64.23
2023-05-19T02:58:49.766Z,66.79
2023-05-19T02:59:49.822Z,64.61
2023-05-19T03:00:49.835Z,62.41
2023-05-19T03:01:49.969Z,68.48
2023-05-19T03:02:49.957Z,63.68
2023-05-19T03:03:50.015Z,64.36
2023-05-19T03:04:49.951Z,63.41
2023-05-19T03:05:49.963Z,62.25
2023-05-19T03:06:50.038Z,66.96
2023-05-19T03:07:50.031Z,65.31
2023-05-19T03:08:50.077Z,66.69
2023-05-19T03:09:50.110Z,63.20
2023-05-19T03:10:50.118Z,65.24
2023-05-19T03:11:50.161Z,65.72
2023-05-19T03:12:50.182Z,62.75
2023-05-19T03:13:50.227Z,64.95
2023-05-19T03:14:50.271Z,63.53
2023-05-19T03:15:50.309Z,63.06
2023-05-19T03:16:50.417Z,63.90
2023-05-19T03:17:50.457Z,64.45
2023-05-19T03:18:50.422Z,61.37
2023-05-19T03:19:50.397Z,63.39
2023-05-19T03:20:50.442Z,64.46
2023-05-19T03:21:50.476Z,64.24
2023-05-19T03:22:50.522Z,66.70
2023-05-19T03:23:50.527Z,66.04
2023-05-19T03:24:50.564Z,65.67
2023-05-19T03:25:50.586Z,65.80
2023-05-19T03:26:50.624Z,66.42
2023-05-19T03:27:50.660Z,66.85
2023-05-19T03:28:50.682Z,69.12
2023-05-19T03:29:50.757Z,64.35
2023-05-19T03:30:50.817Z,68.07
2023-05-19T03:31:50.809Z,68.68
2023-05-19T03:32:50.867Z,64.45
2023-05-19T03:33:50.849Z,66.17
2023-05-19T03:34:50.892Z,65.98
2023-05-19T03:35:50.912Z,66.73
2023-05-19T03:36:50.948Z,68.56
2023-05-19T03:37:50.975Z,65.70
2023-05-19T03:38:51.006Z,67.28
2023-05-19T03:39:51.028Z,63.50
2023-05-19T03:40:51.097Z,66.69
2023-05-19T03:41:51.100Z,68.84
2023-05-19T03:42:51.137Z,66.32
2023-05-19T03:43:51.153Z,67.29
2023-05-19T03:44:51.199Z,69.66
2023-05-19T03:45:51.278Z,65.18
2023-05-19T03:46:51.256Z,67.69
2023-05-19T03:47:51.308Z,67.23
2023-05-19T03:48:51.305Z,64.39
2023-05-19T03:49:51.367Z,68.19
2023-05-19T03:50:51.373Z,68.72
2023-05-19T03:51:51.429Z,68.39
2023-05-19T03:52:51.438Z,64.91
2023-05-19T03:53:51.470Z,67.71
2023-05-19T03:54:51.505Z,65.93
2023-05-19T03:55:51.531Z,63.96
2023-05-19T03:56:51.566Z,63.40
2023-05-19T03:57:51.596Z,68.09
2023-05-19T03:58:51.635Z,69.61
2023-05-19T03:59:51.663Z,64.67
2023-05-19T04:00:51.713Z,62.51
2023-05-19T04:01:51.822Z,68.44
2023-05-19T04:02:51.974Z,65.82
2023-05-19T04:03:51.780Z,66.25
2023-05-19T04:04:51.878Z,65.31
2023-05-19T04:05:51.877Z,68.87
2023-05-19T04:06:51.888Z,68.59
2023-05-19T04:07:51.938Z,69.16
2023-05-19T04:08:51.948Z,67.90
2023-05-19T04:09:52.010Z,66.12
2023-05-19T04:10:52.008Z,71.69
2023-05-19T04:11:52.053Z,66.60
2023-05-19T04:12:52.076Z,67.80
2023-05-19T04:13:52.187Z,65.49
2023-05-19T04:14:52.149Z,67.06
2023-05-19T04:15:52.223Z,70.46
2023-05-19T04:16:53.115Z,65.50
2023-05-19T04:17:52.267Z,66.28
2023-05-19T04:18:52.290Z,67.32
2023-05-19T04:19:52.327Z,69.76
2023-05-19T04:20:52.360Z,68.93
2023-05-19T04:21:52.401Z,66.38
2023-05-19T04:22:52.420Z,65.82
2023-05-19T04:23:52.482Z,69.41
2023-05-19T04:24:52.497Z,72.09
2023-05-19T04:25:52.531Z,69.18
2023-05-19T04:26:52.564Z,70.65
2023-05-19T04:27:52.599Z,68.23
2023-05-19T04:28:52.641Z,65.49
2023-05-19T04:29:52.684Z,67.04
2023-05-19T04:30:52.804Z,69.93
2023-05-19T04:31:52.755Z,69.25
2023-05-19T04:32:52.833Z,69.98
2023-05-19T04:33:52.822Z,71.46
2023-05-19T04:34:52.852Z,69.55
2023-05-19T04:35:52.876Z,67.09
2023-05-19T04:36:53.613Z,70.08
2023-05-19T04:37:52.958Z,69.85
2023-05-19T04:38:52.982Z,73.20
2023-05-19T04:39:53.036Z,68.94
2023-05-19T04:40:53.059Z,68.70
2023-05-19T04:41:53.117Z,72.52
2023-05-19T04:42:53.123Z,67.83
2023-05-19T04:43:53.282Z,68.33
2023-05-19T04:44:53.195Z,65.48
2023-05-19T04:45:53.237Z,70.04
2023-05-19T04:46:53.299Z,66.02
2023-05-19T04:47:53.322Z,67.52
2023-05-19T04:48:53.351Z,66.63
2023-05-19T04:49:53.381Z,66.52
2023-05-19T04:50:53.445Z,65.31
2023-05-19T04:51:55.727Z,65.98
2023-05-19T04:52:53.622Z,67.91
2023-05-19T04:53:53.639Z,64.46
2023-05-19T04:54:53.668Z,69.47
2023-05-19T04:55:53.714Z,72.01
2023-05-19T04:56:53.744Z,70.95
2023-05-19T04:57:53.780Z,67.20
2023-05-19T04:58:53.821Z,67.65
2023-05-19T04:59:53.850Z,69.30
2023-05-19T05:00:53.879Z,67.60
2023-05-19T05:01:53.987Z,69.71
2023-05-19T05:02:54.016Z,68.36
2023-05-19T05:03:54.094Z,72.05
2023-05-19T05:04:54.020Z,66.83
2023-05-19T05:05:54.064Z,69.17
2023-05-19T05:06:54.103Z,69.11
2023-05-19T05:07:54.248Z,68.98
2023-05-19T05:08:54.173Z,68.30
2023-05-19T05:09:54.191Z,70.75
2023-05-19T05:10:54.249Z,71.00
2023-05-19T05:11:54.275Z,70.61
2023-05-19T05:12:54.313Z,70.76
2023-05-19T05:13:54.328Z,68.35
2023-05-19T05:14:54.359Z,70.03
2023-05-19T05:15:54.456Z,70.78
2023-05-19T05:16:54.491Z,66.63
2023-05-19T05:17:54.543Z,71.67
2023-05-19T05:18:54.550Z,68.97
2023-05-19T05:19:54.562Z,77.00
2023-05-19T05:20:54.581Z,69.20
2023-05-19T05:21:54.643Z,69.06
2023-05-19T05:22:54.649Z,70.41
2023-05-19T05:23:54.678Z,68.99
2023-05-19T05:24:54.712Z,68.51
2023-05-19T05:25:54.747Z,69.13
2023-05-19T05:26:54.795Z,72.02
2023-05-19T05:27:54.822Z,69.59
2023-05-19T05:28:54.874Z,69.16
2023-05-19T05:29:55.615Z,71.30
2023-05-19T05:30:54.949Z,70.33
2023-05-19T05:31:54.952Z,69.21
2023-05-19T05:32:55.140Z,69.19
2023-05-19T05:33:55.002Z,68.11
2023-05-19T05:34:55.041Z,70.29
2023-05-19T05:35:55.078Z,68.74
2023-05-19T05:36:55.138Z,70.86
2023-05-19T05:37:55.144Z,70.43
2023-05-19T05:38:55.193Z,70.65
2023-05-19T05:39:55.213Z,68.08
2023-05-19T05:40:55.251Z,71.79
2023-05-19T05:41:55.304Z,73.17
2023-05-19T05:42:55.313Z,70.29
2023-05-19T05:43:55.363Z,67.79
2023-05-19T05:44:55.382Z,70.14
2023-05-19T05:45:55.480Z,71.56
2023-05-19T05:46:55.453Z,71.97
2023-05-19T05:47:55.581Z,68.12
2023-05-19T05:48:55.548Z,72.08
2023-05-19T05:49:55.541Z,68.90
2023-05-19T05:50:55.585Z,70.68
2023-05-19T05:52:05.828Z,73.47
2023-05-19T05:52:56.632Z,73.51
2023-05-19T05:53:55.617Z,71.72
2023-05-19T05:54:55.627Z,71.32
2023-05-19T05:55:55.629Z,66.55
2023-05-19T05:56:55.640Z,67.62
2023-05-19T05:57:55.622Z,70.44
2023-05-19T05:58:55.640Z,70.65
2023-05-19T05:59:55.629Z,69.23
2023-05-19T06:00:55.616Z,74.12
2023-05-19T06:01:55.653Z,70.78
2023-05-19T06:02:55.679Z,67.62
2023-05-19T06:03:55.613Z,68.41
2023-05-19T06:04:55.657Z,70.77
2023-05-19T06:05:55.757Z,71.35
2023-05-19T06:06:55.621Z,70.02
2023-05-19T06:07:55.646Z,71.66
2023-05-19T06:08:55.622Z,70.38
2023-05-19T06:09:55.627Z,71.08
2023-05-19T06:10:55.668Z,68.14
2023-05-19T06:11:55.698Z,72.09
2023-05-19T06:12:55.741Z,71.11
2023-05-19T06:13:55.748Z,69.85
2023-05-19T06:14:55.834Z,66.49
2023-05-19T06:15:55.848Z,68.84
2023-05-19T06:16:55.870Z,69.68
2023-05-19T06:17:55.899Z,69.23
2023-05-19T06:18:55.953Z,70.67
2023-05-19T06:19:55.959Z,68.03
2023-05-19T06:20:55.992Z,69.53
2023-05-19T06:21:56.029Z,68.29
2023-05-19T06:22:56.051Z,68.46
2023-05-19T06:23:56.085Z,69.78
2023-05-19T06:24:56.114Z,69.72
2023-05-19T06:25:56.156Z,67.27
2023-05-19T06:26:56.170Z,66.99
2023-05-19T06:27:56.216Z,68.78
2023-05-19T06:28:56.225Z,68.95
2023-05-19T06:29:56.268Z,66.30
2023-05-19T06:30:56.324Z,66.87
2023-05-19T06:31:56.490Z,65.78
2023-05-19T06:32:56.382Z,69.49
2023-05-19T06:33:56.374Z,69.30
2023-05-19T06:34:56.387Z,66.58
2023-05-19T06:35:56.416Z,68.92
2023-05-19T06:36:56.459Z,67.34
2023-05-19T06:37:56.469Z,68.88
2023-05-19T06:38:56.510Z,68.30
2023-05-19T06:39:56.534Z,65.78
2023-05-19T06:40:56.575Z,67.05
2023-05-19T06:41:56.596Z,68.96
2023-05-19T06:42:56.647Z,65.88
2023-05-19T06:43:56.651Z,66.24
2023-05-19T06:44:56.702Z,64.51
2023-05-19T06:45:56.707Z,69.04
2023-05-19T06:46:56.759Z,68.49
2023-05-19T06:47:56.779Z,64.96
2023-05-19T06:48:56.799Z,67.99
2023-05-19T06:49:57.666Z,68.11
2023-05-19T06:50:56.859Z,66.21
2023-05-19T06:51:56.917Z,66.03
2023-05-19T06:52:56.921Z,67.48
2023-05-19T06:53:56.942Z,64.81
2023-05-19T06:54:56.938Z,68.46
2023-05-19T06:55:59.885Z,68.28
2023-05-19T06:56:56.967Z,71.31
2023-05-19T06:57:56.955Z,69.89
2023-05-19T06:58:56.945Z,68.11
2023-05-19T06:59:56.934Z,72.12
2023-05-19T07:00:56.940Z,68.25
2023-05-19T07:01:56.953Z,71.86
2023-05-19T07:02:57.021Z,68.75
2023-05-19T07:03:57.016Z,69.22
2023-05-19T07:04:56.927Z,67.29
2023-05-19T07:05:56.924Z,66.65
2023-05-19T07:06:56.919Z,67.33
2023-05-19T07:07:56.923Z,67.31
2023-05-19T07:08:56.904Z,69.04
2023-05-19T07:09:56.909Z,68.57
2023-05-19T07:10:56.896Z,64.39
2023-05-19T07:11:56.899Z,66.93
2023-05-19T07:12:56.883Z,66.85
2023-05-19T07:13:56.885Z,65.91
2023-05-19T07:14:56.903Z,65.74
2023-05-19T07:15:56.927Z,65.21
2023-05-19T07:16:56.929Z,67.72
2023-05-19T07:17:56.964Z,66.84
2023-05-19T07:18:56.907Z,66.10
2023-05-19T07:19:56.872Z,70.62
2023-05-19T07:20:56.875Z,67.62
2023-05-19T07:21:56.886Z,67.78
2023-05-19T07:22:56.864Z,67.85
2023-05-19T07:23:56.884Z,66.66
2023-05-19T07:24:56.848Z,64.96
2023-05-19T07:25:57.046Z,66.42
2023-05-19T07:26:56.852Z,69.00
2023-05-19T07:27:56.849Z,67.37
2023-05-19T07:28:57.684Z,67.63
2023-05-19T07:29:56.836Z,70.33
2023-05-19T07:30:56.837Z,69.12
2023-05-19T07:31:56.888Z,69.27
2023-05-19T07:32:56.905Z,68.79
2023-05-19T07:33:56.833Z,68.31
2023-05-19T07:34:56.842Z,68.58
2023-05-19T07:35:56.819Z,68.77
2023-05-19T07:36:56.814Z,68.35
2023-05-19T07:37:56.811Z,65.87
2023-05-19T07:38:56.840Z,68.16
2023-05-19T07:39:56.807Z,69.10
2023-05-19T07:40:56.817Z,70.94
2023-05-19T07:41:56.811Z,72.09
2023-05-19T07:42:56.790Z,70.43
2023-05-19T07:43:56.821Z,67.90
2023-05-19T07:44:56.801Z,70.99
2023-05-19T07:45:56.887Z,70.32
2023-05-19T07:46:57.209Z,69.64
2023-05-19T07:47:56.802Z,71.25
2023-05-19T07:48:56.780Z,71.82
2023-05-19T07:49:56.779Z,71.54
2023-05-19T07:50:56.783Z,71.29
2023-05-19T07:51:56.766Z,71.10
2023-05-19T07:52:56.780Z,71.37
2023-05-19T07:53:56.744Z,72.61
2023-05-19T07:54:56.739Z,68.70
2023-05-19T07:55:58.496Z,70.35
2023-05-19T07:56:56.731Z,70.54
2023-05-19T07:57:56.725Z,71.89
2023-05-19T07:58:56.713Z,73.94
2023-05-19T07:59:56.767Z,73.43
2023-05-19T08:00:56.726Z,73.81
2023-05-19T08:01:56.712Z,73.13
2023-05-19T08:02:56.848Z,72.95
2023-05-19T08:03:56.850Z,77.79
2023-05-19T08:04:56.854Z,77.23
2023-05-19T08:05:56.747Z,80.09
2023-05-19T08:06:56.793Z,83.86
2023-05-19T08:07:56.826Z,84.23
2023-05-19T08:08:56.877Z,84.24
2023-05-19T08:09:56.934Z,89.06
2023-05-19T08:10:56.982Z,84.08
2023-05-19T08:11:57.162Z,84.73
2023-05-19T08:12:57.051Z,88.88
2023-05-19T08:13:57.060Z,90.58
2023-05-19T08:14:58.826Z,86.85
2023-05-19T08:15:57.215Z,86.26
2023-05-19T08:16:57.110Z,91.51
2023-05-19T08:17:57.113Z,87.70
2023-05-19T08:18:57.106Z,87.96
2023-05-19T08:19:57.081Z,89.25
2023-05-19T08:20:57.081Z,87.48
2023-05-19T08:21:57.089Z,86.48
2023-05-19T08:22:57.062Z,87.12
2023-05-19T08:23:57.054Z,86.90
2023-05-19T08:24:57.057Z,88.32
2023-05-19T08:25:57.028Z,88.96
2023-05-19T08:26:57.030Z,89.34
2023-05-19T08:27:57.177Z,88.25
2023-05-19T08:28:57.010Z,86.80
2023-05-19T08:29:56.990Z,89.35
2023-05-19T08:30:57.036Z,87.78
2023-05-19T08:31:56.993Z,91.09
2023-05-19T08:32:56.963Z,88.98
2023-05-19T08:33:56.920Z,92.36
2023-05-19T08:34:56.907Z,89.90
2023-05-19T08:35:57.710Z,86.10
2023-05-19T08:36:56.891Z,91.46
2023-05-19T08:37:56.894Z,88.21
2023-05-19T08:38:56.868Z,89.30
2023-05-19T08:39:56.931Z,86.98
2023-05-19T08:40:56.840Z,88.24
2023-05-19T08:41:56.844Z,87.05
2023-05-19T08:42:56.814Z,86.65
2023-05-19T08:43:56.791Z,88.47
2023-05-19T08:44:56.786Z,87.34
2023-05-19T08:45:56.762Z,87.54
2023-05-19T08:46:56.842Z,89.37
2023-05-19T08:47:56.845Z,86.08
2023-05-19T08:48:56.731Z,86.34
2023-05-19T08:49:56.714Z,89.07
2023-05-19T08:50:56.692Z,87.85
2023-05-19T08:51:56.688Z,89.64
2023-05-19T08:52:56.663Z,89.15
2023-05-19T08:53:56.669Z,90.13
2023-05-19T08:54:56.643Z,91.12
2023-05-19T08:55:56.649Z,90.50
2023-05-19T08:56:56.609Z,89.70
2023-05-19T08:57:56.603Z,90.29
2023-05-19T08:58:56.599Z,88.71
2023-05-19T08:59:56.606Z,87.62
2023-05-19T09:00:56.674Z,89.44
2023-05-19T09:01:56.700Z,91.30
2023-05-19T09:03:06.132Z,93.32
2023-05-19T09:03:57.745Z,93.42
2023-05-19T09:04:56.740Z,93.78
2023-05-19T09:05:56.727Z,93.77
2023-05-19T09:06:56.674Z,94.29
2023-05-19T09:07:56.642Z,94.09
2023-05-19T09:08:56.653Z,94.59
2023-05-19T09:09:56.627Z,94.82
2023-05-19T09:10:56.602Z,95.33
2023-05-19T09:11:56.579Z,93.48
2023-05-19T09:12:56.564Z,93.97
2023-05-19T09:13:56.561Z,93.53
2023-05-19T09:14:56.568Z,94.81
2023-05-19T09:15:56.604Z,94.67
2023-05-19T09:16:56.664Z,95.86
2023-05-19T09:17:57.235Z,96.16
2023-05-19T09:18:56.878Z,97.34
2023-05-19T09:19:56.706Z,95.16
2023-05-19T09:20:56.729Z,96.60
2023-05-19T09:21:56.781Z,98.20
2023-05-19T09:22:56.774Z,95.63
2023-05-19T09:23:56.832Z,96.01
2023-05-19T09:24:56.882Z,96.73
2023-05-19T09:25:56.875Z,96.61
2023-05-19T09:26:57.921Z,97.94
2023-05-19T09:27:56.890Z,97.44
2023-05-19T09:28:56.869Z,99.24
2023-05-19T09:29:56.855Z,98.77
2023-05-19T09:30:56.844Z,101.10
2023-05-19T09:31:56.860Z,98.59
2023-05-19T09:32:56.863Z,99.96
2023-05-19T09:33:56.797Z,100.20
2023-05-19T09:34:56.807Z,97.51
2023-05-19T09:35:56.855Z,99.68
2023-05-19T09:36:56.758Z,97.44
2023-05-19T09:37:56.742Z,98.92
2023-05-19T09:38:56.737Z,97.62
2023-05-19T09:39:56.702Z,96.78
2023-05-19T09:40:56.696Z,97.88
2023-05-19T09:41:56.694Z,100.39
2023-05-19T09:42:56.688Z,99.61
2023-05-19T09:43:56.713Z,98.47
2023-05-19T09:44:56.679Z,98.59
2023-05-19T09:45:56.746Z,100.36
2023-05-19T09:46:56.672Z,101.58
2023-05-19T09:47:56.662Z,101.95
2023-05-19T09:48:56.631Z,98.40
2023-05-19T09:49:56.628Z,100.50
2023-05-19T09:50:56.632Z,102.07
2023-05-19T09:51:56.653Z,102.01
2023-05-19T09:52:56.609Z,101.28
2023-05-19T09:53:56.586Z,102.08
2023-05-19T09:54:56.595Z,103.89
2023-05-19T09:55:56.557Z,104.92
2023-05-19T09:56:56.575Z,103.64
2023-05-19T09:57:56.566Z,103.79
2023-05-19T09:58:56.534Z,101.30
2023-05-19T09:59:56.528Z,103.77
2023-05-19T10:00:56.524Z,102.90
2023-05-19T10:01:56.621Z,104.94
2023-05-19T10:02:56.525Z,105.09
2023-05-19T10:03:56.471Z,104.87
2023-05-19T10:04:56.516Z,104.45
2023-05-19T10:05:56.452Z,104.43
2023-05-19T10:06:56.418Z,102.89
2023-05-19T10:07:56.397Z,104.28
2023-05-19T10:08:57.231Z,103.00
2023-05-19T10:09:58.520Z,104.28
2023-05-19T10:10:56.344Z,105.94
2023-05-19T10:11:56.331Z,104.38
2023-05-19T10:12:56.350Z,103.73
2023-05-19T10:13:56.394Z,103.93
2023-05-19T10:14:56.441Z,104.82
2023-05-19T10:15:59.205Z,105.07
2023-05-19T10:16:56.753Z,108.22
2023-05-19T10:17:56.435Z,107.53
2023-05-19T10:18:56.455Z,105.83
2023-05-19T10:19:56.390Z,106.29
2023-05-19T10:20:56.370Z,105.45
2023-05-19T10:21:56.386Z,104.62
2023-05-19T10:22:56.345Z,106.92
2023-05-19T10:23:56.341Z,107.05
2023-05-19T10:24:56.348Z,107.62
2023-05-19T10:25:56.309Z,106.43
2023-05-19T10:26:56.334Z,106.54
2023-05-19T10:27:56.293Z,106.95
2023-05-19T10:28:56.276Z,106.56
2023-05-19T10:29:56.283Z,106.43
2023-05-19T10:30:56.269Z,106.05
2023-05-19T10:31:56.355Z,105.78
2023-05-19T10:32:56.285Z,107.09
2023-05-19T10:33:56.227Z,107.27
2023-05-19T10:34:56.241Z,106.68
2023-05-19T10:35:56.217Z,106.80
2023-05-19T10:36:56.205Z,106.27
2023-05-19T10:37:56.198Z,108.58
2023-05-19T10:38:56.184Z,107.58
2023-05-19T10:39:56.176Z,106.73
2023-05-19T10:40:56.186Z,107.03
2023-05-19T10:41:56.168Z,107.72
2023-05-19T10:42:56.166Z,105.64
2023-05-19T10:43:56.136Z,106.13
2023-05-19T10:44:56.132Z,108.59
2023-05-19T10:45:56.125Z,106.97
2023-05-19T10:46:57.110Z,108.21
2023-05-19T10:47:56.197Z,109.22
2023-05-19T10:48:56.085Z,108.14
2023-05-19T10:49:56.127Z,109.30
2023-05-19T10:50:56.066Z,109.18
2023-05-19T10:51:56.116Z,108.73
2023-05-19T10:52:56.046Z,109.78
2023-05-19T10:53:56.019Z,110.21
2023-05-19T10:54:56.026Z,109.60
2023-05-19T10:55:56.075Z,108.03
2023-05-19T10:56:56.020Z,111.16
2023-05-19T10:57:55.979Z,112.37
2023-05-19T10:58:55.978Z,108.98
2023-05-19T10:59:55.966Z,111.11
2023-05-19T11:00:55.943Z,109.91
2023-05-19T11:01:56.000Z,110.64
2023-05-19T11:02:55.996Z,110.88
2023-05-19T11:03:56.015Z,112.39
2023-05-19T11:04:55.953Z,112.21
2023-05-19T11:05:56.000Z,109.46
2023-05-19T11:06:56.025Z,112.37
2023-05-19T11:07:56.137Z,111.42
2023-05-19T11:08:56.070Z,111.81
2023-05-19T11:09:56.101Z,108.89
2023-05-19T11:10:56.142Z,112.29
2023-05-19T11:11:56.149Z,108.79
2023-05-19T11:12:58.194Z,112.50
2023-05-19T11:13:56.258Z,112.81
2023-05-19T11:14:56.252Z,111.14
2023-05-19T11:15:56.265Z,111.84
2023-05-19T11:16:56.322Z,110.64
2023-05-19T11:17:56.364Z,113.10
2023-05-19T11:18:56.409Z,111.90
2023-05-19T11:19:56.382Z,111.59
2023-05-19T11:20:56.452Z,111.92
2023-05-19T11:21:56.453Z,112.74
2023-05-19T11:22:56.483Z,112.84
2023-05-19T11:23:56.535Z,112.84
2023-05-19T11:24:56.600Z,112.58
2023-05-19T11:25:56.568Z,113.23
2023-05-19T11:26:56.611Z,112.12
2023-05-19T11:27:56.625Z,114.50
2023-05-19T11:28:56.658Z,113.40
2023-05-19T11:29:56.684Z,114.11
2023-05-19T11:30:56.716Z,113.86
2023-05-19T11:31:56.759Z,112.19
2023-05-19T11:32:56.829Z,113.63
2023-05-19T11:33:56.816Z,112.17
2023-05-19T11:34:56.831Z,113.58
2023-05-19T11:35:56.889Z,112.47
2023-05-19T11:36:56.900Z,112.67
2023-05-19T11:37:56.955Z,112.93
2023-05-19T11:38:56.968Z,110.35
2023-05-19T11:39:56.998Z,113.34
2023-05-19T11:40:57.031Z,111.91
2023-05-19T11:41:57.054Z,113.82
2023-05-19T11:42:57.082Z,112.59
2023-05-19T11:43:57.115Z,112.69
2023-05-19T11:44:57.159Z,111.53
2023-05-19T11:45:57.272Z,110.84
2023-05-19T11:46:57.239Z,114.13
2023-05-19T11:48:02.343Z,113.05
2023-05-19T11:48:58.203Z,113.21
2023-05-19T11:49:57.176Z,113.75
2023-05-19T11:50:57.156Z,114.20
2023-05-19T11:51:57.143Z,115.52
2023-05-19T11:52:57.114Z,115.74
2023-05-19T11:53:57.109Z,113.70
2023-05-19T11:54:57.091Z,115.18
2023-05-19T11:55:57.155Z,112.88
2023-05-19T11:56:57.069Z,112.39
2023-05-19T11:58:03.882Z,113.43
2023-05-19T11:58:58.031Z,113.64
2023-05-19T11:59:57.031Z,114.00
2023-05-19T12:00:57.016Z,114.34
2023-05-19T12:01:57.006Z,114.73
2023-05-19T12:02:57.043Z,114.54
2023-05-19T12:03:57.050Z,115.58
2023-05-19T12:04:56.968Z,115.92
2023-05-19T12:05:56.949Z,115.82
2023-05-19T12:06:56.911Z,114.48
2023-05-19T12:07:56.887Z,115.41
2023-05-19T12:08:56.907Z,114.54
2023-05-19T12:09:56.915Z,113.65
2023-05-19T12:10:56.972Z,115.04
2023-05-19T12:11:56.989Z,112.92
2023-05-19T12:12:57.015Z,114.94
2023-05-19T12:13:57.041Z,114.22
2023-05-19T12:14:57.047Z,116.91
2023-05-19T12:15:57.096Z,112.77
2023-05-19T12:16:57.155Z,115.73
2023-05-19T12:17:57.171Z,113.73
2023-05-19T12:18:57.233Z,111.71
2023-05-19T12:19:57.198Z,112.34
2023-05-19T12:20:57.254Z,112.56
2023-05-19T12:21:57.273Z,111.44
2023-05-19T12:22:57.344Z,111.41
2023-05-19T12:23:57.328Z,111.75
2023-05-19T12:24:57.448Z,110.40
2023-05-19T12:25:57.394Z,108.75
2023-05-19T12:26:57.431Z,111.32
2023-05-19T12:27:58.186Z,112.30
2023-05-19T12:28:57.506Z,112.30
2023-05-19T12:29:57.526Z,111.43
2023-05-19T12:30:57.558Z,112.65
2023-05-19T12:31:57.603Z,112.07
2023-05-19T12:32:57.833Z,110.16
2023-05-19T12:33:57.669Z,110.20
2023-05-19T12:34:57.697Z,112.29
2023-05-19T12:35:57.747Z,111.24
2023-05-19T12:36:57.773Z,109.55
2023-05-19T12:37:57.905Z,110.95
2023-05-19T12:38:57.844Z,108.48
2023-05-19T12:39:57.898Z,111.50
2023-05-19T12:40:57.905Z,112.00
2023-05-19T12:41:57.976Z,111.29
2023-05-19T12:42:57.971Z,110.78
2023-05-19T12:43:58.021Z,109.53
2023-05-19T12:44:58.384Z,114.44
2023-05-19T12:45:58.084Z,115.57
2023-05-19T12:46:58.099Z,110.22